Time;durP1;ratioP1;P1;durP2;ratioP2;P2;SDS_P1;SDS_P2;PMS_P1;PMS_P2;Temp;Humidity;BMP_temperature;BMP_pressure;BME280_temperature;BME280_humidity;BME280_pressure;Samples;Min_cycle;Max_cycle;Signal;HPM_P1;HPM_P2
2023/04/17 00:01:38;;;;;;;43.47;35.97;;;8.70;99.90;;;;;;5052419;28;20043;-86
2023/04/17 00:04:04;;;;;;;46.22;37.50;;;8.70;99.90;;;;;;5065394;28;20473;-86
2023/04/17 00:06:32;;;;;;;47.38;37.50;;;8.70;99.90;;;;;;5073678;28;20400;-86
2023/04/17 00:08:58;;;;;;;48.60;39.25;;;8.70;99.90;;;;;;5077397;28;20097;-86
2023/04/17 00:11:25;;;;;;;45.08;37.50;;;8.60;99.90;;;;;;5068312;28;20037;-87
2023/04/17 00:13:50;;;;;;;44.92;37.65;;;8.60;99.90;;;;;;5047909;28;20048;-87
2023/04/17 00:16:16;;;;;;;46.58;37.95;;;8.60;99.90;;;;;;5065115;28;20516;-86
2023/04/17 00:18:42;;;;;;;46.25;38.20;;;8.60;99.90;;;;;;5077780;28;20033;-85
2023/04/17 00:21:07;;;;;;;45.15;37.92;;;8.60;99.90;;;;;;5076144;28;20042;-85
2023/04/17 00:23:33;;;;;;;48.80;39.55;;;8.70;99.90;;;;;;5074311;28;20118;-85
2023/04/17 00:25:59;;;;;;;49.33;38.53;;;8.70;99.90;;;;;;5062870;28;20374;-86
2023/04/17 00:28:24;;;;;;;46.72;37.30;;;8.60;99.90;;;;;;5061991;28;20035;-86
2023/04/17 00:30:50;;;;;;;45.75;37.95;;;8.70;99.90;;;;;;5068519;28;20045;-87
2023/04/17 00:33:16;;;;;;;45.63;38.65;;;8.70;99.90;;;;;;5069586;28;20528;-87
2023/04/17 00:35:41;;;;;;;44.22;37.97;;;8.70;99.90;;;;;;5071649;28;20098;-87
2023/04/17 00:38:08;;;;;;;48.80;38.20;;;8.70;99.90;;;;;;5071065;28;20032;-86
2023/04/17 00:40:34;;;;;;;48.63;39.58;;;8.70;99.90;;;;;;5071661;28;20117;-86
2023/04/17 00:43:03;;;;;;;46.35;38.58;;;8.70;99.90;;;;;;5073299;28;20064;-87
2023/04/17 00:45:30;;;;;;;48.33;39.38;;;8.70;99.90;;;;;;5082041;28;20044;-86
2023/04/17 00:47:58;;;;;;;46.40;39.22;;;8.70;99.90;;;;;;5069872;28;20071;-86
2023/04/17 00:50:25;;;;;;;43.67;37.72;;;8.70;99.90;;;;;;5054718;28;20063;-88
2023/04/17 00:52:51;;;;;;;47.55;38.95;;;8.70;99.90;;;;;;5070591;28;20446;-86
2023/04/17 00:55:17;;;;;;;46.35;39.22;;;8.70;99.90;;;;;;5073797;28;20307;-87
2023/04/17 00:57:43;;;;;;;47.15;38.63;;;8.80;99.90;;;;;;5079376;28;20056;-87
2023/04/17 01:00:10;;;;;;;48.28;39.65;;;8.70;99.90;;;;;;5075291;28;20450;-86
2023/04/17 01:02:36;;;;;;;50.55;39.13;;;8.70;99.90;;;;;;5076386;28;20068;-87
2023/04/17 01:05:02;;;;;;;52.03;41.00;;;8.80;99.90;;;;;;5071381;28;20039;-87
2023/04/17 01:07:29;;;;;;;50.70;41.22;;;8.80;99.90;;;;;;5054031;28;20040;-87
2023/04/17 01:09:55;;;;;;;51.17;41.15;;;8.70;99.90;;;;;;5071556;28;20052;-86
2023/04/17 01:12:22;;;;;;;48.53;38.50;;;8.80;99.90;;;;;;5053614;28;20511;-86
2023/04/17 01:14:55;;;;;;;53.92;42.22;;;8.70;99.90;;;;;;5052540;28;21532;-87
2023/04/17 01:17:22;;;;;;;58.50;44.17;;;8.70;99.90;;;;;;5070545;28;20044;-87
2023/04/17 01:19:48;;;;;;;54.25;41.80;;;8.70;99.90;;;;;;5070480;28;20044;-86
2023/04/17 01:22:19;;;;;;;54.38;42.20;;;8.70;99.90;;;;;;5069460;28;20074;-87
2023/04/17 01:24:45;;;;;;;57.58;41.20;;;8.70;99.90;;;;;;5070397;28;20107;-86
2023/04/17 01:27:14;;;;;;;57.92;42.65;;;8.70;99.90;;;;;;5069082;28;20040;-87
2023/04/17 01:29:43;;;;;;;60.25;44.58;;;8.70;99.90;;;;;;5068057;28;20032;-86
2023/04/17 01:32:09;;;;;;;55.50;41.97;;;8.70;99.90;;;;;;5066648;28;20105;-87
2023/04/17 01:34:35;;;;;;;63.22;46.78;;;8.70;99.90;;;;;;5069772;28;20044;-87
2023/04/17 01:37:00;;;;;;;57.08;44.55;;;8.70;99.90;;;;;;5043365;28;20047;-86
2023/04/17 01:39:26;;;;;;;61.63;46.00;;;8.60;99.90;;;;;;5064707;28;20486;-87
2023/04/17 01:41:53;;;;;;;64.03;46.08;;;8.60;99.90;;;;;;5051331;28;20043;-87
2023/04/17 01:44:19;;;;;;;62.10;46.20;;;8.70;99.90;;;;;;5069871;28;20102;-87
2023/04/17 01:46:45;;;;;;;62.70;45.97;;;8.70;99.90;;;;;;5076880;28;20043;-88
2023/04/17 01:49:11;;;;;;;64.63;46.67;;;8.70;99.90;;;;;;5069708;28;20028;-87
2023/04/17 01:51:36;;;;;;;62.92;45.85;;;8.70;99.90;;;;;;5077836;28;20070;-86
2023/04/17 01:54:02;;;;;;;63.95;46.25;;;8.60;99.90;;;;;;5048737;28;20036;-87
2023/04/17 01:56:28;;;;;;;64.00;47.15;;;8.70;99.90;;;;;;5075001;28;20040;-86
2023/04/17 01:58:53;;;;;;;66.65;46.85;;;8.60;99.90;;;;;;5061822;28;20056;-86
2023/04/17 02:01:19;;;;;;;68.03;47.70;;;8.70;99.90;;;;;;5067968;28;20533;-87
2023/04/17 02:03:45;;;;;;;60.13;46.67;;;8.70;99.90;;;;;;5058789;28;20508;-87
2023/04/17 02:06:11;;;;;;;63.13;46.15;;;8.70;99.90;;;;;;5068926;28;20112;-86
2023/04/17 02:08:36;;;;;;;66.70;47.75;;;8.70;99.90;;;;;;5066695;28;20102;-87
2023/04/17 02:11:02;;;;;;;65.30;47.08;;;8.70;99.90;;;;;;5060656;28;20098;-86
2023/04/17 02:13:28;;;;;;;63.92;47.97;;;8.70;99.90;;;;;;5066790;28;20036;-87
2023/04/17 02:15:53;;;;;;;63.97;47.45;;;8.70;99.90;;;;;;5054516;28;20129;-86
2023/04/17 02:18:19;;;;;;;68.05;48.20;;;8.70;99.90;;;;;;5072531;28;20044;-86
2023/04/17 02:20:45;;;;;;;66.60;46.95;;;8.70;99.90;;;;;;5077257;28;20626;-87
2023/04/17 02:23:11;;;;;;;69.65;47.08;;;8.80;99.90;;;;;;5070800;28;20064;-86
2023/04/17 02:25:37;;;;;;;62.10;47.88;;;8.70;99.90;;;;;;5072211;28;20039;-87
2023/04/17 02:28:03;;;;;;;63.50;47.80;;;8.70;99.90;;;;;;5066165;28;20082;-87
2023/04/17 02:30:28;;;;;;;72.38;50.63;;;8.80;99.90;;;;;;5052938;28;20040;-86
2023/04/17 02:32:55;;;;;;;72.10;51.63;;;8.80;99.90;;;;;;5070552;28;20400;-86
2023/04/17 02:35:25;;;;;;;72.32;49.22;;;8.70;99.90;;;;;;5073881;28;20036;-86
2023/04/17 02:37:52;;;;;;;66.75;47.83;;;8.70;99.90;;;;;;5062782;28;20163;-86
2023/04/17 02:40:18;;;;;;;75.95;50.55;;;8.70;99.90;;;;;;5071046;28;20036;-86
2023/04/17 02:42:43;;;;;;;71.40;52.33;;;8.70;99.90;;;;;;5072324;28;20042;-87
2023/04/17 02:45:10;;;;;;;78.60;53.45;;;8.70;99.90;;;;;;5071223;28;20033;-86
2023/04/17 02:47:36;;;;;;;73.95;52.10;;;8.70;99.90;;;;;;5072368;28;20089;-86
2023/04/17 02:50:02;;;;;;;75.45;50.33;;;8.70;99.90;;;;;;5070300;28;20072;-87
2023/04/17 02:52:29;;;;;;;74.78;52.67;;;8.70;99.90;;;;;;5068812;28;20399;-87
2023/04/17 02:54:56;;;;;;;72.45;49.97;;;8.70;99.90;;;;;;5074705;28;20040;-86
2023/04/17 02:57:22;;;;;;;76.10;54.17;;;8.70;99.90;;;;;;5070026;28;20044;-86
2023/04/17 02:59:49;;;;;;;76.57;54.03;;;8.70;99.90;;;;;;5059126;28;20040;-87
2023/04/17 03:02:15;;;;;;;75.65;52.63;;;8.70;99.90;;;;;;5069542;28;20033;-87
2023/04/17 03:04:41;;;;;;;77.75;53.92;;;8.70;99.90;;;;;;5070025;28;20040;-86
2023/04/17 03:07:09;;;;;;;84.18;54.85;;;8.70;99.90;;;;;;5067541;28;20127;-86
2023/04/17 03:09:35;;;;;;;70.30;50.50;;;8.70;99.90;;;;;;5070262;28;20040;-86
2023/04/17 03:12:00;;;;;;;76.15;53.85;;;8.70;99.90;;;;;;5068615;28;20388;-86
2023/04/17 03:14:26;;;;;;;72.97;53.85;;;8.70;99.90;;;;;;5052644;28;20033;-86
2023/04/17 03:16:52;;;;;;;70.80;50.67;;;8.70;99.90;;;;;;5041514;28;20032;-87
2023/04/17 03:19:17;;;;;;;73.93;49.35;;;8.70;99.90;;;;;;5069142;28;20041;-87
2023/04/17 03:21:43;;;;;;;72.28;53.15;;;8.70;99.90;;;;;;5068282;28;20499;-87
2023/04/17 03:24:10;;;;;;;68.88;49.20;;;8.70;99.90;;;;;;5067876;28;20086;-86
2023/04/17 03:26:36;;;;;;;73.00;53.40;;;8.70;99.90;;;;;;5069515;28;20047;-87
2023/04/17 03:29:01;;;;;;;75.90;53.38;;;8.70;99.90;;;;;;5064806;28;20037;-86
2023/04/17 03:31:27;;;;;;;78.10;53.95;;;8.70;99.90;;;;;;5055034;28;20197;-87
2023/04/17 03:33:53;;;;;;;80.95;54.10;;;8.80;99.90;;;;;;5051688;28;20056;-87
2023/04/17 03:36:18;;;;;;;71.55;51.60;;;8.70;99.90;;;;;;5068460;28;20044;-87
2023/04/17 03:38:44;;;;;;;84.95;53.53;;;8.70;99.90;;;;;;5067403;28;20044;-87
2023/04/17 03:41:10;;;;;;;73.72;52.33;;;8.70;99.90;;;;;;5065024;28;20052;-86
2023/04/17 03:43:35;;;;;;;68.88;52.00;;;8.70;99.90;;;;;;5066309;28;20055;-86
2023/04/17 03:46:01;;;;;;;70.93;49.85;;;8.70;99.90;;;;;;5049418;28;20095;-86
2023/04/17 03:48:27;;;;;;;76.28;52.92;;;8.70;99.90;;;;;;5063345;28;20119;-87
2023/04/17 03:50:52;;;;;;;74.50;52.08;;;8.70;99.90;;;;;;5067132;28;20079;-86
2023/04/17 03:53:18;;;;;;;77.03;52.95;;;8.70;99.90;;;;;;5050603;28;20048;-87
2023/04/17 03:55:44;;;;;;;77.97;52.83;;;8.70;99.90;;;;;;5066025;28;20063;-87
2023/04/17 03:58:10;;;;;;;86.60;54.85;;;8.70;99.90;;;;;;5066774;28;20418;-87
2023/04/17 04:00:36;;;;;;;87.70;54.08;;;8.70;99.90;;;;;;5068651;28;20509;-86
2023/04/17 04:03:02;;;;;;;79.55;52.15;;;8.70;99.90;;;;;;5049289;28;20040;-86
2023/04/17 04:05:28;;;;;;;75.57;52.00;;;8.70;99.90;;;;;;5069651;28;20047;-87
2023/04/17 04:07:54;;;;;;;83.72;52.97;;;8.70;99.90;;;;;;5068460;28;20028;-87
2023/04/17 04:10:20;;;;;;;77.47;52.92;;;8.60;99.90;;;;;;5050931;28;20074;-87
2023/04/17 04:12:46;;;;;;;80.05;50.92;;;8.60;99.90;;;;;;5066825;28;20516;-87
2023/04/17 04:15:12;;;;;;;78.85;52.35;;;8.60;99.90;;;;;;5056439;28;20047;-87
2023/04/17 04:17:38;;;;;;;78.53;53.58;;;8.60;99.90;;;;;;5064751;28;20439;-87
2023/04/17 04:20:06;;;;;;;79.45;53.25;;;8.50;99.90;;;;;;5065489;28;20048;-87
2023/04/17 04:22:33;;;;;;;80.05;50.58;;;8.50;99.90;;;;;;5054595;28;20044;-88
2023/04/17 04:24:59;;;;;;;73.97;49.70;;;8.60;99.90;;;;;;5066726;28;20392;-88
2023/04/17 04:27:26;;;;;;;71.85;51.05;;;8.50;99.90;;;;;;5072216;28;20032;-87
2023/04/17 04:29:57;;;;;;;76.15;51.40;;;8.50;99.90;;;;;;5049136;28;20063;-86
2023/04/17 04:32:24;;;;;;;85.90;52.95;;;8.60;99.90;;;;;;5070848;28;20565;-87
2023/04/17 04:34:50;;;;;;;76.63;48.63;;;8.60;99.90;;;;;;5055434;28;20033;-87
2023/04/17 04:37:20;;;;;;;70.75;49.28;;;8.60;99.90;;;;;;5082141;28;20040;-87
2023/04/17 04:39:52;;;;;;;65.95;47.47;;;8.60;99.90;;;;;;5072235;28;20087;-87
2023/04/17 04:42:20;;;;;;;67.90;48.05;;;8.50;99.90;;;;;;5066174;28;20044;-87
2023/04/17 04:44:46;;;;;;;66.32;47.72;;;8.50;99.90;;;;;;5072721;28;20036;-87
2023/04/17 04:47:12;;;;;;;68.18;49.22;;;8.50;99.90;;;;;;5072269;28;20041;-88
2023/04/17 04:49:38;;;;;;;60.15;44.80;;;8.50;99.90;;;;;;5071600;28;20404;-87
2023/04/17 04:52:03;;;;;;;61.55;46.22;;;8.50;99.90;;;;;;5071107;28;20036;-87
2023/04/17 04:54:29;;;;;;;67.75;48.35;;;8.50;99.90;;;;;;5073453;28;20041;-87
2023/04/17 04:56:55;;;;;;;59.25;44.38;;;8.60;99.90;;;;;;5061856;28;20041;-91
2023/04/17 04:59:21;;;;;;;57.25;43.72;;;8.50;99.90;;;;;;5075927;28;20113;-88
2023/04/17 05:01:47;;;;;;;59.97;45.75;;;8.60;99.90;;;;;;5074380;28;20257;-87
2023/04/17 05:04:12;;;;;;;61.75;45.75;;;8.60;99.90;;;;;;5074065;28;20400;-89
2023/04/17 05:06:38;;;;;;;58.15;44.95;;;8.60;99.90;;;;;;5073711;28;20452;-86
2023/04/17 05:09:04;;;;;;;52.78;42.92;;;8.60;99.90;;;;;;5075053;28;20028;-86
2023/04/17 05:11:31;;;;;;;52.75;43.35;;;8.50;99.90;;;;;;5055429;28;20049;-86
2023/04/17 05:13:56;;;;;;;55.03;42.45;;;8.50;99.90;;;;;;5070339;28;20049;-87
2023/04/17 05:16:22;;;;;;;58.38;44.67;;;8.50;99.90;;;;;;5079316;28;20551;-87
2023/04/17 05:18:47;;;;;;;55.28;43.63;;;8.50;99.90;;;;;;5073680;28;20047;-87
2023/04/17 05:21:13;;;;;;;54.95;41.90;;;8.50;99.90;;;;;;5063199;28;20070;-86
2023/04/17 05:23:39;;;;;;;57.20;43.75;;;8.50;99.90;;;;;;5070418;28;20055;-88
2023/04/17 05:26:05;;;;;;;54.70;43.30;;;8.50;99.90;;;;;;5056802;28;20481;-87
2023/04/17 05:28:30;;;;;;;58.03;44.95;;;8.50;99.90;;;;;;5070331;28;20055;-87
2023/04/17 05:30:56;;;;;;;60.03;46.05;;;8.50;99.90;;;;;;5071076;28;20119;-87
2023/04/17 05:33:22;;;;;;;56.95;42.03;;;8.50;99.90;;;;;;5085943;28;20032;-90
2023/04/17 05:35:48;;;;;;;50.33;40.55;;;8.50;99.90;;;;;;5082836;28;20028;-87
2023/04/17 05:38:13;;;;;;;52.22;42.45;;;8.50;99.90;;;;;;5066374;28;20108;-88
2023/04/17 05:40:39;;;;;;;53.38;42.47;;;8.50;99.90;;;;;;5064688;28;20077;-88
2023/04/17 05:43:09;;;;;;;55.78;42.53;;;8.60;99.90;;;;;;5067197;28;20029;-87
2023/04/17 05:45:34;;;;;;;55.83;43.75;;;8.60;99.90;;;;;;5065757;28;20033;-87
2023/04/17 05:48:00;;;;;;;67.18;45.85;;;8.60;99.90;;;;;;5050141;28;20119;-87
2023/04/17 05:50:26;;;;;;;60.33;46.00;;;8.60;99.90;;;;;;5066186;28;20039;-86
2023/04/17 05:52:52;;;;;;;58.45;43.85;;;8.60;99.90;;;;;;5069350;28;20484;-87
2023/04/17 05:55:19;;;;;;;68.60;46.88;;;8.60;99.90;;;;;;5070329;28;20068;-88
2023/04/17 05:57:44;;;;;;;68.07;46.28;;;8.60;99.90;;;;;;5069698;28;20057;-86
2023/04/17 06:00:11;;;;;;;58.78;44.63;;;8.50;99.90;;;;;;5068030;28;20032;-89
2023/04/17 06:02:41;;;;;;;61.42;44.40;;;8.60;99.90;;;;;;5068305;28;20064;-89
2023/04/17 06:05:07;;;;;;;62.50;44.97;;;8.60;99.90;;;;;;5061859;28;20059;-90
2023/04/17 06:07:34;;;;;;;57.22;42.55;;;8.50;99.90;;;;;;5058093;28;20116;-89
2023/04/17 06:10:00;;;;;;;56.72;43.33;;;8.50;99.90;;;;;;5067751;28;20116;-90
2023/04/17 06:12:26;;;;;;;55.47;45.03;;;8.50;99.90;;;;;;5068810;28;20091;-89
2023/04/17 06:14:51;;;;;;;52.15;40.95;;;8.50;99.90;;;;;;5068872;28;20094;-90
2023/04/17 06:17:17;;;;;;;57.60;44.63;;;8.50;99.90;;;;;;5071111;28;20043;-94
2023/04/17 06:19:43;;;;;;;57.13;44.55;;;8.50;99.90;;;;;;5068054;28;20044;-88
2023/04/17 06:22:09;;;;;;;53.80;43.28;;;8.50;99.90;;;;;;5067721;28;20362;-88
2023/04/17 06:24:35;;;;;;;52.78;43.40;;;8.60;99.90;;;;;;5061695;28;20120;-90
2023/04/17 06:27:02;;;;;;;47.17;39.75;;;8.60;99.90;;;;;;5067023;28;20044;-89
2023/04/17 06:29:28;;;;;;;51.10;41.85;;;8.70;99.90;;;;;;5070583;28;20068;-89
2023/04/17 06:31:54;;;;;;;46.15;38.70;;;8.80;99.90;;;;;;5070134;28;20061;-89
2023/04/17 06:34:20;;;;;;;46.72;39.88;;;8.90;99.90;;;;;;5060966;28;20044;-88
2023/04/17 06:36:46;;;;;;;47.50;39.75;;;8.90;99.90;;;;;;5052971;28;20033;-88
2023/04/17 06:39:12;;;;;;;49.50;40.35;;;8.90;99.90;;;;;;5065797;28;20064;-88
2023/04/17 06:41:41;;;;;;;46.72;40.17;;;9.00;99.90;;;;;;5079173;28;20046;-88
2023/04/17 06:44:07;;;;;;;47.17;39.90;;;9.00;99.90;;;;;;5059876;28;20127;-88
2023/04/17 06:46:33;;;;;;;46.35;39.35;;;9.00;99.90;;;;;;5074049;28;20074;-87
2023/04/17 06:48:59;;;;;;;48.10;39.97;;;9.00;99.90;;;;;;5068402;28;20052;-88
2023/04/17 06:51:26;;;;;;;45.40;39.90;;;9.10;99.90;;;;;;5076456;28;20044;-89
2023/04/17 06:53:52;;;;;;;49.35;40.72;;;9.10;99.90;;;;;;5066682;28;20045;-87
2023/04/17 06:56:18;;;;;;;51.13;41.97;;;9.20;99.90;;;;;;5067975;28;20071;-89
2023/04/17 06:58:44;;;;;;;47.55;39.58;;;9.20;99.90;;;;;;5053337;28;20057;-89
2023/04/17 07:01:13;;;;;;;44.90;38.92;;;9.10;99.90;;;;;;5078099;28;20163;-89
2023/04/17 07:03:40;;;;;;;50.63;40.33;;;9.20;99.90;;;;;;5069076;28;20040;-88
2023/04/17 07:06:06;;;;;;;44.03;38.63;;;9.20;99.90;;;;;;5054513;28;20071;-89
2023/04/17 07:08:32;;;;;;;47.30;39.10;;;9.30;99.90;;;;;;5069257;28;20089;-86
2023/04/17 07:10:58;;;;;;;46.65;40.03;;;9.30;99.90;;;;;;5067765;28;20572;-89
2023/04/17 07:13:23;;;;;;;43.35;37.75;;;9.30;99.90;;;;;;5070914;28;20082;-89
2023/04/17 07:15:53;;;;;;;44.15;38.38;;;9.30;99.90;;;;;;5067294;28;20064;-88
2023/04/17 07:18:20;;;;;;;43.42;37.38;;;9.40;99.90;;;;;;5062599;28;20052;-90
2023/04/17 07:20:46;;;;;;;44.58;37.95;;;9.50;99.90;;;;;;5063487;28;20170;-88
2023/04/17 07:23:12;;;;;;;41.15;35.67;;;9.50;99.90;;;;;;5067250;28;20397;-93
2023/04/17 07:25:37;;;;;;;42.63;36.85;;;9.60;99.90;;;;;;5063475;28;20036;-88
2023/04/17 07:28:03;;;;;;;44.55;38.38;;;9.70;99.90;;;;;;5067780;28;20116;-89
2023/04/17 07:30:29;;;;;;;40.58;35.88;;;9.80;99.90;;;;;;5052873;28;20137;-88
2023/04/17 07:32:55;;;;;;;41.78;36.92;;;9.80;99.90;;;;;;5073759;28;20040;-89
2023/04/17 07:35:21;;;;;;;44.60;39.03;;;9.90;99.90;;;;;;5068922;28;20114;-88
2023/04/17 07:37:47;;;;;;;43.70;36.90;;;9.90;99.90;;;;;;5065264;28;20484;-88
2023/04/17 07:40:15;;;;;;;41.80;36.75;;;10.00;99.90;;;;;;5068602;28;20033;-89
2023/04/17 07:42:41;;;;;;;42.83;37.85;;;10.10;99.90;;;;;;5070719;28;20124;-90
2023/04/17 07:45:07;;;;;;;43.67;37.20;;;10.20;99.90;;;;;;5067091;28;20467;-90
2023/04/17 07:47:33;;;;;;;42.50;37.90;;;10.40;99.90;;;;;;5053685;28;20401;-88
2023/04/17 07:49:59;;;;;;;41.47;36.85;;;10.50;99.90;;;;;;5089096;28;20040;-88
2023/04/17 07:52:26;;;;;;;44.05;38.58;;;10.60;99.90;;;;;;5089129;28;20043;-86
2023/04/17 07:54:52;;;;;;;41.42;36.97;;;10.60;99.90;;;;;;5082480;28;20385;-89
2023/04/17 07:57:17;;;;;;;43.55;37.88;;;10.60;99.90;;;;;;5057535;28;20067;-88
2023/04/17 07:59:43;;;;;;;42.13;37.38;;;10.70;99.90;;;;;;5070333;28;20539;-88
2023/04/17 08:02:09;;;;;;;41.38;36.97;;;10.80;99.90;;;;;;5072870;28;20040;-89
2023/04/17 08:04:36;;;;;;;42.75;38.35;;;10.90;99.90;;;;;;5073640;28;20079;-88
2023/04/17 08:07:02;;;;;;;39.63;35.53;;;11.10;99.90;;;;;;5052692;28;20033;-89
2023/04/17 08:09:27;;;;;;;40.72;36.42;;;11.10;99.90;;;;;;5053408;28;20497;-90
2023/04/17 08:11:53;;;;;;;39.50;35.28;;;11.20;99.90;;;;;;5058858;28;20396;-90
2023/04/17 08:14:19;;;;;;;39.85;35.58;;;11.30;99.90;;;;;;5074906;28;20477;-92
2023/04/17 08:16:48;;;;;;;39.53;35.42;;;11.50;99.90;;;;;;5063190;28;20417;-93
2023/04/17 08:19:14;;;;;;;38.20;34.28;;;11.60;99.90;;;;;;5072684;28;20118;-93
2023/04/17 08:21:40;;;;;;;39.03;34.97;;;11.50;99.90;;;;;;5057071;28;20130;-93
2023/04/17 08:24:06;;;;;;;38.83;34.92;;;11.60;99.90;;;;;;5096229;28;20044;-93
2023/04/17 08:26:32;;;;;;;38.85;34.78;;;11.60;99.90;;;;;;5094640;28;20485;-92
2023/04/17 08:29:00;;;;;;;39.25;35.15;;;11.60;99.90;;;;;;5095733;28;20043;-93
2023/04/17 08:31:27;;;;;;;39.63;35.55;;;11.60;99.90;;;;;;5087483;28;20060;-92
2023/04/17 08:33:53;;;;;;;39.22;35.13;;;11.70;99.90;;;;;;5074676;28;20404;-90
2023/04/17 08:36:19;;;;;;;39.53;35.35;;;11.60;99.90;;;;;;5058409;28;20391;-93
2023/04/17 08:38:46;;;;;;;40.25;36.30;;;11.80;99.90;;;;;;5076065;28;20093;-95
2023/04/17 08:41:19;;;;;;;41.03;36.53;;;11.80;99.90;;;;;;5075032;28;20044;-93
2023/04/17 08:43:49;;;;;;;41.65;37.17;;;12.10;99.90;;;;;;5074247;28;20048;-92
2023/04/17 08:46:21;;;;;;;39.03;35.10;;;12.30;99.90;;;;;;5075794;28;20435;-95
2023/04/17 08:48:46;;;;;;;41.67;37.53;;;12.40;99.90;;;;;;5074341;28;20036;-94
2023/04/17 08:51:13;;;;;;;41.78;37.67;;;12.40;99.90;;;;;;5075315;28;20499;-93
2023/04/17 08:53:39;;;;;;;39.60;35.58;;;12.50;99.90;;;;;;5074154;28;20047;-94
2023/04/17 08:56:05;;;;;;;40.35;36.20;;;12.60;99.90;;;;;;5074101;28;20485;-93
2023/04/17 08:58:32;;;;;;;40.03;35.83;;;12.60;99.90;;;;;;5074981;28;20044;-93
2023/04/17 09:01:10;;;;;;;41.28;37.08;;;12.60;99.90;;;;;;5073724;28;20044;-93
2023/04/17 09:03:41;;;;;;;41.20;37.20;;;12.60;99.90;;;;;;5075033;28;20044;-95
2023/04/17 09:06:11;;;;;;;39.97;36.08;;;12.60;99.90;;;;;;5074477;28;20060;-93
2023/04/17 09:08:38;;;;;;;40.10;36.03;;;12.70;99.90;;;;;;5074078;28;20072;-94
2023/04/17 09:11:04;;;;;;;39.70;35.83;;;12.80;99.90;;;;;;5073164;28;20051;-93
2023/04/17 09:13:38;;;;;;;40.45;36.28;;;12.80;99.90;;;;;;5057042;28;20399;-93
2023/04/17 09:16:09;;;;;;;40.13;36.03;;;12.80;99.90;;;;;;5073308;28;20434;-93
2023/04/17 09:18:36;;;;;;;39.22;35.33;;;12.80;99.90;;;;;;5077425;28;20036;-93
2023/04/17 09:21:03;;;;;;;38.60;34.90;;;12.90;99.90;;;;;;5056089;28;20067;-92
2023/04/17 09:23:44;;;;;;;38.88;34.97;;;13.00;99.90;;;;;;5074278;28;20158;-94
2023/04/17 09:26:14;;;;;;;38.70;34.83;;;13.00;99.90;;;;;;5072746;28;20036;-93
2023/04/17 09:28:42;;;;;;;40.50;36.55;;;13.10;99.90;;;;;;5072998;28;20040;-94
2023/04/17 09:31:17;;;;;;;38.92;35.13;;;13.20;99.90;;;;;;5077216;28;20098;-93
2023/04/17 09:34:06;;;;;;;39.92;36.00;;;13.30;99.90;;;;;;5075137;28;20116;-93
2023/04/17 09:36:35;;;;;;;41.03;36.92;;;13.40;99.90;;;;;;5065503;28;20056;-92
2023/04/17 09:39:15;;;;;;;41.22;37.25;;;13.50;99.90;;;;;;5073937;28;20097;-93
2023/04/17 09:41:41;;;;;;;39.78;35.97;;;13.60;99.90;;;;;;5075440;28;20405;-93
2023/04/17 09:44:08;;;;;;;38.45;34.67;;;13.80;99.90;;;;;;5072449;28;20049;-94
2023/04/17 09:46:37;;;;;;;37.88;34.17;;;13.80;99.90;;;;;;5075719;28;20359;-94
2023/04/17 09:49:13;;;;;;;35.70;32.22;;;13.90;99.90;;;;;;5079281;28;20079;-93
2023/04/17 09:51:39;;;;;;;36.95;33.53;;;14.00;99.90;;;;;;5081253;28;20037;-95
2023/04/17 09:54:08;;;;;;;36.40;32.88;;;14.00;99.90;;;;;;5078467;28;20056;-93
2023/04/17 09:56:36;;;;;;;35.63;32.03;;;14.10;99.90;;;;;;5078527;28;20041;-92
2023/04/17 09:59:05;;;;;;;33.88;30.67;;;14.10;99.90;;;;;;5095002;28;20094;-92
2023/04/17 10:01:32;;;;;;;33.55;30.42;;;14.10;99.90;;;;;;5083967;28;20835;-92
2023/04/17 10:03:58;;;;;;;34.38;31.10;;;14.10;99.90;;;;;;5074432;28;20047;-90
2023/04/17 10:06:27;;;;;;;33.00;29.90;;;14.30;99.90;;;;;;5093278;28;20082;-90
2023/04/17 10:08:54;;;;;;;33.28;30.20;;;14.40;99.90;;;;;;5084606;28;20082;-89
2023/04/17 10:11:23;;;;;;;32.28;29.17;;;14.50;99.90;;;;;;5071869;28;20052;-89
2023/04/17 10:14:10;;;;;;;32.97;29.83;;;14.70;99.90;;;;;;5058097;28;20072;-89
2023/04/17 10:16:37;;;;;;;31.25;28.42;;;14.80;99.90;;;;;;5051425;28;20401;-87
2023/04/17 10:19:22;;;;;;;31.20;28.30;;;14.80;99.90;;;;;;5049053;28;20060;-89
2023/04/17 10:22:14;;;;;;;29.60;26.88;;;14.80;99.90;;;;;;5060501;28;20045;-88
2023/04/17 10:24:40;;;;;;;29.60;26.80;;;14.90;99.90;;;;;;5069069;28;20037;-88
2023/04/17 10:27:27;;;;;;;28.27;25.60;;;14.90;99.90;;;;;;5064573;28;20043;-87
2023/04/17 10:30:01;;;;;;;28.02;25.23;;;15.00;99.90;;;;;;5066272;28;20473;-86
2023/04/17 10:32:31;;;;;;;26.98;24.52;;;15.00;99.90;;;;;;5086246;28;20044;-87
2023/04/17 10:34:58;;;;;;;25.27;22.90;;;14.90;99.90;;;;;;5051602;28;20051;-85
2023/04/17 10:38:03;;;;;;;24.35;22.05;;;14.90;99.90;;;;;;5069062;28;20282;-86
2023/04/17 10:40:30;;;;;;;24.30;22.10;;;15.00;99.90;;;;;;5033870;28;20046;-89
2023/04/17 10:43:06;;;;;;;24.27;21.88;;;15.10;99.90;;;;;;5011656;28;20053;-87
2023/04/17 10:46:12;;;;;;;23.90;21.08;;;15.30;99.90;;;;;;5028632;28;20445;-90
2023/04/17 10:48:51;;;;;;;23.67;21.40;;;15.10;99.90;;;;;;5028557;28;20058;-89
2023/04/17 10:51:26;;;;;;;22.77;20.50;;;15.10;99.90;;;;;;5028287;28;20490;-88
2023/04/17 10:54:08;;;;;;;23.13;21.02;;;15.10;99.90;;;;;;5011611;28;20104;-88
2023/04/17 10:56:44;;;;;;;22.40;20.20;;;15.30;99.90;;;;;;5027394;28;20079;-88
2023/04/17 10:59:12;;;;;;;22.27;20.08;;;15.50;99.90;;;;;;5047710;28;20389;-89
2023/04/17 11:01:47;;;;;;;21.98;19.77;;;15.60;99.90;;;;;;5048430;28;20049;-89
2023/04/17 11:04:26;;;;;;;22.25;19.92;;;15.60;99.90;;;;;;5048158;28;20068;-91
2023/04/17 11:06:53;;;;;;;20.60;18.50;;;15.60;99.90;;;;;;5048419;28;20052;-89
2023/04/17 11:09:23;;;;;;;22.45;18.98;;;15.50;99.90;;;;;;5031555;28;20493;-90
2023/04/17 11:11:49;;;;;;;21.15;19.08;;;15.40;99.90;;;;;;5046171;28;20040;-88
2023/04/17 11:14:20;;;;;;;22.23;19.95;;;15.20;99.90;;;;;;5042437;28;20064;-92
2023/04/17 11:16:47;;;;;;;21.30;19.10;;;15.10;99.90;;;;;;5053348;28;20032;-88
2023/04/17 11:19:23;;;;;;;20.90;18.70;;;15.10;99.90;;;;;;5055149;28;20032;-89
2023/04/17 11:21:56;;;;;;;20.83;18.52;;;15.20;99.90;;;;;;5048937;28;20045;-87
2023/04/17 11:24:22;;;;;;;20.13;18.05;;;15.20;99.90;;;;;;5065071;28;20041;-89
2023/04/17 11:26:48;;;;;;;19.50;17.60;;;15.30;99.90;;;;;;5067326;28;20401;-88
2023/04/17 11:29:19;;;;;;;18.65;16.73;;;15.40;99.90;;;;;;5073205;28;20119;-87
2023/04/17 11:31:45;;;;;;;18.80;16.90;;;15.40;99.90;;;;;;5067432;28;20033;-85
2023/04/17 11:34:14;;;;;;;18.02;16.13;;;15.40;99.90;;;;;;5064913;28;20061;-87
2023/04/17 11:36:50;;;;;;;16.90;15.15;;;15.50;99.90;;;;;;5047940;28;20092;-88
2023/04/17 11:39:17;;;;;;;16.63;14.73;;;15.60;99.90;;;;;;5048709;28;20044;-87
2023/04/17 11:41:44;;;;;;;18.70;15.95;;;15.70;99.90;;;;;;5048927;28;20045;-88
2023/04/17 11:44:12;;;;;;;15.75;13.80;;;15.60;99.90;;;;;;5048383;28;20064;-89
2023/04/17 11:46:37;;;;;;;15.98;13.82;;;15.50;99.90;;;;;;5058031;28;20040;-89
2023/04/17 11:49:06;;;;;;;15.93;13.27;;;15.50;99.90;;;;;;5067851;28;20085;-91
2023/04/17 11:51:32;;;;;;;15.68;14.02;;;15.60;99.90;;;;;;5070458;28;20045;-88
2023/04/17 11:53:58;;;;;;;15.05;13.45;;;15.60;99.90;;;;;;5067275;28;20507;-87
2023/04/17 11:56:28;;;;;;;15.32;13.75;;;15.70;99.90;;;;;;5069359;28;20037;-88
2023/04/17 11:58:58;;;;;;;15.80;14.10;;;15.90;99.90;;;;;;5069118;28;20053;-89
2023/04/17 12:01:26;;;;;;;18.17;15.83;;;16.20;99.90;;;;;;5069871;28;20048;-89
2023/04/17 12:03:56;;;;;;;18.52;16.63;;;16.40;99.90;;;;;;5068293;28;20040;-88
2023/04/17 12:06:26;;;;;;;17.67;15.80;;;16.40;99.90;;;;;;5069774;28;20374;-88
2023/04/17 12:08:54;;;;;;;18.08;16.27;;;16.50;99.90;;;;;;5050926;28;20135;-88
2023/04/17 12:11:31;;;;;;;17.45;15.65;;;16.40;99.90;;;;;;5068018;28;20079;-89
2023/04/17 12:13:58;;;;;;;17.55;15.57;;;16.40;99.90;;;;;;5068756;28;20041;-88
2023/04/17 12:16:24;;;;;;;18.08;16.17;;;16.30;99.90;;;;;;5074443;28;20133;-89
2023/04/17 12:18:50;;;;;;;19.20;17.23;;;16.30;99.90;;;;;;5072722;28;20431;-88
2023/04/17 12:21:18;;;;;;;19.30;17.20;;;16.20;99.90;;;;;;5068387;28;20069;-87
2023/04/17 12:23:43;;;;;;;19.40;16.85;;;16.20;99.90;;;;;;5071707;28;20064;-87
2023/04/17 12:26:09;;;;;;;17.88;16.20;;;16.10;99.90;;;;;;5071565;28;20040;-87
2023/04/17 12:28:35;;;;;;;19.15;17.08;;;16.10;99.90;;;;;;5068955;28;20068;-87
2023/04/17 12:31:01;;;;;;;18.25;16.27;;;16.00;99.90;;;;;;5051193;28;20044;-87
2023/04/17 12:33:27;;;;;;;19.25;17.35;;;15.90;99.90;;;;;;5073122;28;20044;-87
2023/04/17 12:35:53;;;;;;;17.30;15.38;;;15.90;99.90;;;;;;5069782;28;20044;-86